sensor_id;sensor_type;location;lat;lon;timestamp;pressure;altitude;pressure_sealevel;temperature;humidity
17607;BME280;69222;52.242;20.980;2023-05-01T00:01:13;100910.16;;;9.04;48.85
17607;BME280;69222;52.242;20.980;2023-05-01T00:03:41;100904.09;;;8.97;48.76
17607;BME280;69222;52.242;20.980;2023-05-01T00:06:09;100908.34;;;8.93;49.05
17607;BME280;69222;52.242;20.980;2023-05-01T00:08:37;100911.75;;;8.91;49.61
17607;BME280;69222;52.242;20.980;2023-05-01T00:11:05;100914.25;;;8.83;49.04
17607;BME280;69222;52.242;20.980;2023-05-01T00:13:35;100909.19;;;8.88;49.76
17607;BME280;69222;52.242;20.980;2023-05-01T00:16:08;100905.72;;;8.84;49.37
17607;BME280;69222;52.242;20.980;2023-05-01T00:18:36;100911.69;;;8.82;49.83
17607;BME280;69222;52.242;20.980;2023-05-01T00:21:04;100918.47;;;8.74;50.17
17607;BME280;69222;52.242;20.980;2023-05-01T00:23:32;100911.56;;;8.69;49.90
17607;BME280;69222;52.242;20.980;2023-05-01T00:26:00;100919.28;;;8.73;49.76
17607;BME280;69222;52.242;20.980;2023-05-01T00:28:28;100908.16;;;8.72;50.10
17607;BME280;69222;52.242;20.980;2023-05-01T00:30:56;100914.16;;;8.69;49.75
17607;BME280;69222;52.242;20.980;2023-05-01T00:33:25;100914.94;;;8.64;50.27
17607;BME280;69222;52.242;20.980;2023-05-01T00:35:54;100920.88;;;8.60;50.86
17607;BME280;69222;52.242;20.980;2023-05-01T00:38:22;100918.22;;;8.52;49.80
17607;BME280;69222;52.242;20.980;2023-05-01T00:40:50;100913.84;;;8.42;50.42
17607;BME280;69222;52.242;20.980;2023-05-01T00:43:18;100916.34;;;8.37;50.97
17607;BME280;69222;52.242;20.980;2023-05-01T00:45:46;100918.81;;;8.31;50.75
17607;BME280;69222;52.242;20.980;2023-05-01T00:48:14;100913.63;;;8.28;50.69
17607;BME280;69222;52.242;20.980;2023-05-01T00:50:44;100916.16;;;8.23;50.33
17607;BME280;69222;52.242;20.980;2023-05-01T00:53:12;100917.84;;;8.21;50.43
17607;BME280;69222;52.242;20.980;2023-05-01T00:55:41;100914.41;;;8.21;50.37
17607;BME280;69222;52.242;20.980;2023-05-01T00:58:09;100917.84;;;8.21;50.69
17607;BME280;69222;52.242;20.980;2023-05-01T01:00:37;100912.69;;;8.18;50.57
17607;BME280;69222;52.242;20.980;2023-05-01T01:03:05;100914.41;;;8.19;51.11
17607;BME280;69222;52.242;20.980;2023-05-01T01:05:41;100913.50;;;8.14;50.59
17607;BME280;69222;52.242;20.980;2023-05-01T01:08:18;100922.91;;;8.14;50.73
17607;BME280;69222;52.242;20.980;2023-05-01T01:10:53;100923.69;;;8.10;51.02
17607;BME280;69222;52.242;20.980;2023-05-01T01:13:27;100914.25;;;8.07;50.73
17607;BME280;69222;52.242;20.980;2023-05-01T01:16:03;100906.50;;;8.04;50.75
17607;BME280;69222;52.242;20.980;2023-05-01T01:18:39;100919.31;;;8.01;51.37
17607;BME280;69222;52.242;20.980;2023-05-01T01:21:13;100917.50;;;7.94;51.46
17607;BME280;69222;52.242;20.980;2023-05-01T01:24:16;100921.72;;;7.89;51.42
17607;BME280;69222;52.242;20.980;2023-05-01T01:30:31;100918.16;;;7.78;52.10
17607;BME280;69222;52.242;20.980;2023-05-01T01:33:24;100925.69;;;7.68;52.12
17607;BME280;69222;52.242;20.980;2023-05-01T01:36:01;100920.50;;;7.65;52.01
17607;BME280;69222;52.242;20.980;2023-05-01T01:38:41;100919.66;;;7.63;52.10
17607;BME280;69222;52.242;20.980;2023-05-01T01:41:13;100921.38;;;7.64;51.62
17607;BME280;69222;52.242;20.980;2023-05-01T01:43:49;100930.81;;;7.68;51.97
17607;BME280;69222;52.242;20.980;2023-05-01T01:46:20;100925.75;;;7.71;51.80
17607;BME280;69222;52.242;20.980;2023-05-01T01:48:51;100922.34;;;7.72;51.80
17607;BME280;69222;52.242;20.980;2023-05-01T01:51:24;100929.09;;;7.67;52.03
17607;BME280;69222;52.242;20.980;2023-05-01T01:53:55;100923.06;;;7.62;51.66
17607;BME280;69222;52.242;20.980;2023-05-01T01:56:26;100933.28;;;7.61;51.65
17607;BME280;69222;52.242;20.980;2023-05-01T01:58:56;100933.19;;;7.55;51.91
17607;BME280;69222;52.242;20.980;2023-05-01T02:01:25;100928.88;;;7.52;52.01
17607;BME280;69222;52.242;20.980;2023-05-01T02:03:55;100923.72;;;7.49;51.75
17607;BME280;69222;52.242;20.980;2023-05-01T02:06:27;100928.84;;;7.49;51.57
17607;BME280;69222;52.242;20.980;2023-05-01T02:08:57;100929.75;;;7.54;51.27
17607;BME280;69222;52.242;20.980;2023-05-01T02:11:27;100933.16;;;7.53;51.42
17607;BME280;69222;52.242;20.980;2023-05-01T02:13:58;100929.81;;;7.57;51.55
17607;BME280;69222;52.242;20.980;2023-05-01T02:16:27;100926.34;;;7.54;51.40
17607;BME280;69222;52.242;20.980;2023-05-01T02:18:56;100931.47;;;7.54;51.54
17607;BME280;69222;52.242;20.980;2023-05-01T02:21:26;100933.22;;;7.56;51.06
17607;BME280;69222;52.242;20.980;2023-05-01T02:23:59;100924.72;;;7.60;51.24
17607;BME280;69222;52.242;20.980;2023-05-01T02:26:28;100925.66;;;7.65;50.96
17607;BME280;69222;52.242;20.980;2023-05-01T02:28:56;100930.81;;;7.68;51.42
17607;BME280;69222;52.242;20.980;2023-05-01T02:31:24;100932.47;;;7.65;51.03
17607;BME280;69222;52.242;20.980;2023-05-01T02:33:53;100923.94;;;7.64;51.29
17607;BME280;69222;52.242;20.980;2023-05-01T02:36:21;100926.50;;;7.64;51.56
17607;BME280;69222;52.242;20.980;2023-05-01T02:38:50;100929.06;;;7.64;51.67
17607;BME280;69222;52.242;20.980;2023-05-01T02:41:19;100929.91;;;7.63;51.23
17607;BME280;69222;52.242;20.980;2023-05-01T02:43:52;100931.56;;;7.61;51.31
17607;BME280;69222;52.242;20.980;2023-05-01T02:46:23;100928.09;;;7.58;51.30
17607;BME280;69222;52.242;20.980;2023-05-01T02:48:53;100926.38;;;7.57;52.12
17607;BME280;69222;52.242;20.980;2023-05-01T02:51:23;100920.41;;;7.56;52.06
17607;BME280;69222;52.242;20.980;2023-05-01T02:53:53;100920.34;;;7.52;51.79
17607;BME280;69222;52.242;20.980;2023-05-01T02:56:21;100924.63;;;7.53;51.69
17607;BME280;69222;52.242;20.980;2023-05-01T02:58:50;100922.00;;;7.48;51.99
17607;BME280;69222;52.242;20.980;2023-05-01T03:01:18;100921.09;;;7.46;51.93
17607;BME280;69222;52.242;20.980;2023-05-01T03:03:47;100928.72;;;7.43;52.11
17607;BME280;69222;52.242;20.980;2023-05-01T03:06:15;100932.13;;;7.40;52.14
17607;BME280;69222;52.242;20.980;2023-05-01T03:08:43;100928.59;;;7.34;52.04
17607;BME280;69222;52.242;20.980;2023-05-01T03:11:12;100927.69;;;7.30;51.91
17607;BME280;69222;52.242;20.980;2023-05-01T03:13:41;100923.38;;;7.28;52.23
17607;BME280;69222;52.242;20.980;2023-05-01T03:16:09;100927.69;;;7.30;52.11
17607;BME280;69222;52.242;20.980;2023-05-01T03:18:37;100925.91;;;7.26;52.26
17607;BME280;69222;52.242;20.980;2023-05-01T03:21:05;100925.88;;;7.24;52.44
17607;BME280;69222;52.242;20.980;2023-05-01T03:23:33;100929.22;;;7.20;52.67
17607;BME280;69222;52.242;20.980;2023-05-01T03:26:00;100923.97;;;7.13;52.78
17607;BME280;69222;52.242;20.980;2023-05-01T03:28:30;100922.22;;;7.09;52.57
17607;BME280;69222;52.242;20.980;2023-05-01T03:30:58;100928.13;;;7.06;52.71
17607;BME280;69222;52.242;20.980;2023-05-01T03:33:25;100927.31;;;7.07;52.91
17607;BME280;69222;52.242;20.980;2023-05-01T03:36:00;100925.69;;;7.11;53.19
17607;BME280;69222;52.242;20.980;2023-05-01T03:38:29;100928.25;;;7.12;52.89
17607;BME280;69222;52.242;20.980;2023-05-01T03:40:57;100924.72;;;7.04;53.23
17607;BME280;69222;52.242;20.980;2023-05-01T03:43:25;100916.13;;;7.02;53.24
17607;BME280;69222;52.242;20.980;2023-05-01T03:45:54;100922.09;;;7.01;53.35
17607;BME280;69222;52.242;20.980;2023-05-01T03:48:23;100922.88;;;6.97;53.53
17607;BME280;69222;52.242;20.980;2023-05-01T03:50:51;100920.25;;;6.92;53.67
17607;BME280;69222;52.242;20.980;2023-05-01T03:53:19;100921.03;;;6.90;53.98
17607;BME280;69222;52.242;20.980;2023-05-01T03:55:47;100927.00;;;6.89;54.00
17607;BME280;69222;52.242;20.980;2023-05-01T03:58:14;100922.75;;;6.91;53.88
17607;BME280;69222;52.242;20.980;2023-05-01T04:00:43;100917.75;;;6.97;54.34
17607;BME280;69222;52.242;20.980;2023-05-01T04:03:12;100925.53;;;7.03;53.98
17607;BME280;69222;52.242;20.980;2023-05-01T04:05:40;100922.28;;;7.12;53.61
17607;BME280;69222;52.242;20.980;2023-05-01T04:08:08;100930.88;;;7.15;53.62
17607;BME280;69222;52.242;20.980;2023-05-01T04:10:36;100927.44;;;7.15;53.46
17607;BME280;69222;52.242;20.980;2023-05-01T04:13:04;100935.31;;;7.25;54.09
17607;BME280;69222;52.242;20.980;2023-05-01T04:15:32;100929.53;;;7.37;53.48
17607;BME280;69222;52.242;20.980;2023-05-01T04:18:00;100932.25;;;7.48;53.63
17607;BME280;69222;52.242;20.980;2023-05-01T04:20:29;100931.56;;;7.61;52.89
17607;BME280;69222;52.242;20.980;2023-05-01T04:22:58;100924.91;;;7.72;52.78
17607;BME280;69222;52.242;20.980;2023-05-01T04:25:26;100925.03;;;7.83;51.73
17607;BME280;69222;52.242;20.980;2023-05-01T04:27:54;100923.38;;;7.87;51.48
17607;BME280;69222;52.242;20.980;2023-05-01T04:30:22;100926.09;;;7.96;51.61
17607;BME280;69222;52.242;20.980;2023-05-01T04:32:50;100921.06;;;8.05;51.06
17607;BME280;69222;52.242;20.980;2023-05-01T04:35:18;100934.00;;;8.13;50.81
17607;BME280;69222;52.242;20.980;2023-05-01T04:37:48;100927.22;;;8.19;50.39
17607;BME280;69222;52.242;20.980;2023-05-01T04:40:16;100923.00;;;8.24;49.71
17607;BME280;69222;52.242;20.980;2023-05-01T04:42:44;100925.78;;;8.38;50.33
17607;BME280;69222;52.242;20.980;2023-05-01T04:45:12;100926.78;;;8.51;49.66
17607;BME280;69222;52.242;20.980;2023-05-01T04:47:40;100926.09;;;8.66;49.03
17607;BME280;69222;52.242;20.980;2023-05-01T04:50:09;100924.53;;;8.83;47.67
17607;BME280;69222;52.242;20.980;2023-05-01T04:52:37;100921.19;;;8.90;46.57
17607;BME280;69222;52.242;20.980;2023-05-01T04:55:07;100913.53;;;8.97;45.86
17607;BME280;69222;52.242;20.980;2023-05-01T04:57:35;100915.41;;;9.14;46.38
17607;BME280;69222;52.242;20.980;2023-05-01T05:00:05;100919.03;;;9.41;46.55
17607;BME280;69222;52.242;20.980;2023-05-01T05:02:33;100908.94;;;9.68;45.23
17607;BME280;69222;52.242;20.980;2023-05-01T05:05:01;100903.06;;;9.96;45.03
17607;BME280;69222;52.242;20.980;2023-05-01T05:07:29;100907.47;;;10.23;44.17
17607;BME280;69222;52.242;20.980;2023-05-01T05:09:57;100908.47;;;10.60;42.73
17607;BME280;69222;52.242;20.980;2023-05-01T05:12:27;100900.78;;;10.89;42.13
17607;BME280;69222;52.242;20.980;2023-05-01T05:14:55;100906.78;;;11.29;41.58
17607;BME280;69222;52.242;20.980;2023-05-01T05:17:23;100905.88;;;11.84;40.93
17607;BME280;69222;52.242;20.980;2023-05-01T05:19:51;100898.59;;;12.69;38.88
17607;BME280;69222;52.242;20.980;2023-05-01T05:22:19;100894.16;;;13.85;36.34
17607;BME280;69222;52.242;20.980;2023-05-01T05:24:52;100891.44;;;15.16;33.84
17607;BME280;69222;52.242;20.980;2023-05-01T05:27:20;100893.47;;;16.36;30.74
17607;BME280;69222;52.242;20.980;2023-05-01T05:29:50;100889.69;;;17.24;28.87
17607;BME280;69222;52.242;20.980;2023-05-01T05:32:18;100885.75;;;17.76;27.38
17607;BME280;69222;52.242;20.980;2023-05-01T05:34:46;100879.09;;;17.96;26.88
17607;BME280;69222;52.242;20.980;2023-05-01T05:37:14;100885.75;;;18.06;26.45
17607;BME280;69222;52.242;20.980;2023-05-01T05:39:42;100884.50;;;18.49;26.06
17607;BME280;69222;52.242;20.980;2023-05-01T05:42:10;100883.25;;;19.40;25.42
17607;BME280;69222;52.242;20.980;2023-05-01T05:44:38;100875.84;;;20.47;23.01
17607;BME280;69222;52.242;20.980;2023-05-01T05:47:07;100880.34;;;21.30;21.14
17607;BME280;69222;52.242;20.980;2023-05-01T05:49:35;100883.69;;;21.74;20.26
17607;BME280;69222;52.242;20.980;2023-05-01T05:52:03;100879.78;;;22.22;19.61
17607;BME280;69222;52.242;20.980;2023-05-01T05:54:31;100884.78;;;22.82;19.01
17607;BME280;69222;52.242;20.980;2023-05-01T05:56:59;100882.91;;;23.37;18.38
17607;BME280;69222;52.242;20.980;2023-05-01T05:59:28;100881.97;;;23.89;17.81
17607;BME280;69222;52.242;20.980;2023-05-01T06:01:56;100873.13;;;24.39;16.98
17607;BME280;69222;52.242;20.980;2023-05-01T06:04:25;100879.75;;;24.92;16.90
17607;BME280;69222;52.242;20.980;2023-05-01T06:06:53;100876.97;;;25.40;16.76
17607;BME280;69222;52.242;20.980;2023-05-01T06:09:21;100880.00;;;25.76;16.11
17607;BME280;69222;52.242;20.980;2023-05-01T06:11:49;100882.34;;;26.24;15.89
17607;BME280;69222;52.242;20.980;2023-05-01T06:14:17;100879.28;;;26.59;15.64
17607;BME280;69222;52.242;20.980;2023-05-01T06:16:45;100879.31;;;26.84;15.11
17607;BME280;69222;52.242;20.980;2023-05-01T06:19:13;100882.81;;;27.25;15.07
17607;BME280;69222;52.242;20.980;2023-05-01T06:21:42;100881.25;;;27.60;13.86
17607;BME280;69222;52.242;20.980;2023-05-01T06:24:10;100880.75;;;27.81;13.44
17607;BME280;69222;52.242;20.980;2023-05-01T06:26:39;100881.16;;;27.62;13.39
17607;BME280;69222;52.242;20.980;2023-05-01T06:29:07;100882.84;;;27.37;13.68
17607;BME280;69222;52.242;20.980;2023-05-01T06:31:34;100883.47;;;27.41;13.52
17607;BME280;69222;52.242;20.980;2023-05-01T06:34:02;100891.28;;;27.17;13.58
17607;BME280;69222;52.242;20.980;2023-05-01T06:36:30;100888.22;;;26.83;13.20
17607;BME280;69222;52.242;20.980;2023-05-01T06:39:00;100895.53;;;26.53;13.90
17607;BME280;69222;52.242;20.980;2023-05-01T06:41:27;100887.78;;;26.35;14.73
17607;BME280;69222;52.242;20.980;2023-05-01T06:43:55;100884.41;;;26.87;14.43
17607;BME280;69222;52.242;20.980;2023-05-01T06:46:24;100884.09;;;27.32;13.99
17607;BME280;69222;52.242;20.980;2023-05-01T06:48:52;100883.28;;;27.95;13.15
17607;BME280;69222;52.242;20.980;2023-05-01T06:51:20;100878.56;;;28.72;13.01
17607;BME280;69222;52.242;20.980;2023-05-01T06:53:47;100879.38;;;28.97;12.71
17607;BME280;69222;52.242;20.980;2023-05-01T06:56:17;100882.75;;;28.27;12.58
17607;BME280;69222;52.242;20.980;2023-05-01T06:58:44;100877.88;;;27.58;13.49
17607;BME280;69222;52.242;20.980;2023-05-01T07:01:12;100883.00;;;27.09;13.50
17607;BME280;69222;52.242;20.980;2023-05-01T07:03:41;100876.97;;;26.67;14.15
17607;BME280;69222;52.242;20.980;2023-05-01T07:06:09;100876.06;;;26.39;14.51
17607;BME280;69222;52.242;20.980;2023-05-01T07:08:37;100878.81;;;26.52;14.92
17607;BME280;69222;52.242;20.980;2023-05-01T07:11:05;100870.03;;;26.79;14.73
17607;BME280;69222;52.242;20.980;2023-05-01T07:13:35;100880.94;;;27.52;14.49
17607;BME280;69222;52.242;20.980;2023-05-01T07:16:03;100880.22;;;28.25;13.74
17607;BME280;69222;52.242;20.980;2023-05-01T07:18:31;100868.63;;;28.87;13.38
17607;BME280;69222;52.242;20.980;2023-05-01T07:21:00;100864.34;;;29.66;12.88
17607;BME280;69222;52.242;20.980;2023-05-01T07:23:28;100858.94;;;30.33;12.46
17607;BME280;69222;52.242;20.980;2023-05-01T07:25:56;100870.97;;;30.60;11.73
17607;BME280;69222;52.242;20.980;2023-05-01T07:28:24;100870.59;;;30.21;12.20
17607;BME280;69222;52.242;20.980;2023-05-01T07:30:53;100854.56;;;30.44;12.45
17607;BME280;69222;52.242;20.980;2023-05-01T07:33:22;100865.09;;;30.45;12.23
17607;BME280;69222;52.242;20.980;2023-05-01T07:35:51;100870.63;;;29.76;12.62
17607;BME280;69222;52.242;20.980;2023-05-01T07:38:19;100869.00;;;29.51;12.67
17607;BME280;69222;52.242;20.980;2023-05-01T07:40:47;100869.13;;;29.27;13.01
17607;BME280;69222;52.242;20.980;2023-05-01T07:43:19;100875.09;;;29.07;13.07
17607;BME280;69222;52.242;20.980;2023-05-01T07:45:55;100869.81;;;29.18;13.76
17607;BME280;69222;52.242;20.980;2023-05-01T07:48:25;100860.22;;;29.96;13.10
17607;BME280;69222;52.242;20.980;2023-05-01T07:50:53;100858.63;;;30.27;12.85
17607;BME280;69222;52.242;20.980;2023-05-01T07:53:22;100865.00;;;30.79;12.66
17607;BME280;69222;52.242;20.980;2023-05-01T07:55:50;100869.22;;;30.70;11.72
17607;BME280;69222;52.242;20.980;2023-05-01T07:58:18;100858.63;;;30.04;12.42
17607;BME280;69222;52.242;20.980;2023-05-01T08:00:46;100860.25;;;29.62;13.22
17607;BME280;69222;52.242;20.980;2023-05-01T08:03:15;100858.25;;;29.53;13.06
17607;BME280;69222;52.242;20.980;2023-05-01T08:05:43;100860.94;;;29.64;12.97
17607;BME280;69222;52.242;20.980;2023-05-01T08:08:11;100857.22;;;29.67;12.85
17607;BME280;69222;52.242;20.980;2023-05-01T08:10:45;100862.38;;;29.57;12.73
17607;BME280;69222;52.242;20.980;2023-05-01T08:13:13;100868.66;;;29.56;13.08
17607;BME280;69222;52.242;20.980;2023-05-01T08:15:41;100865.78;;;29.59;13.54
17607;BME280;69222;52.242;20.980;2023-05-01T08:18:09;100862.31;;;29.23;13.07
17607;BME280;69222;52.242;20.980;2023-05-01T08:20:39;100867.34;;;28.69;13.85
17607;BME280;69222;52.242;20.980;2023-05-01T08:23:07;100864.47;;;28.48;14.90
17607;BME280;69222;52.242;20.980;2023-05-01T08:25:35;100875.88;;;27.75;14.79
17607;BME280;69222;52.242;20.980;2023-05-01T08:28:03;100870.97;;;26.50;14.78
17607;BME280;69222;52.242;20.980;2023-05-01T08:30:31;100878.03;;;25.37;15.71
17607;BME280;69222;52.242;20.980;2023-05-01T08:32:59;100875.47;;;24.59;16.76
17607;BME280;69222;52.242;20.980;2023-05-01T08:35:27;100876.78;;;23.54;17.76
17607;BME280;69222;52.242;20.980;2023-05-01T08:37:57;100879.88;;;22.57;18.78
17607;BME280;69222;52.242;20.980;2023-05-01T08:40:25;100882.69;;;21.37;20.13
17607;BME280;69222;52.242;20.980;2023-05-01T08:42:53;100881.31;;;20.64;20.78
17607;BME280;69222;52.242;20.980;2023-05-01T08:45:22;100876.81;;;20.22;21.72
17607;BME280;69222;52.242;20.980;2023-05-01T08:47:51;100874.88;;;19.81;22.10
17607;BME280;69222;52.242;20.980;2023-05-01T08:50:22;100883.22;;;19.42;22.37
17607;BME280;69222;52.242;20.980;2023-05-01T08:52:52;100882.53;;;19.10;22.77
17607;BME280;69222;52.242;20.980;2023-05-01T08:55:22;100881.13;;;19.00;22.86
17607;BME280;69222;52.242;20.980;2023-05-01T08:57:53;100882.38;;;18.88;23.42
17607;BME280;69222;52.242;20.980;2023-05-01T09:00:23;100877.38;;;18.82;23.57
17607;BME280;69222;52.242;20.980;2023-05-01T09:02:53;100872.16;;;18.82;23.70
17607;BME280;69222;52.242;20.980;2023-05-01T09:05:21;100877.91;;;18.92;23.59
17607;BME280;69222;52.242;20.980;2023-05-01T09:07:49;100877.41;;;19.07;23.27
17607;BME280;69222;52.242;20.980;2023-05-01T09:10:17;100870.59;;;19.28;23.02
17607;BME280;69222;52.242;20.980;2023-05-01T09:12:49;100868.50;;;19.88;22.61
17607;BME280;69222;52.242;20.980;2023-05-01T09:15:19;100859.84;;;20.77;21.94
17607;BME280;69222;52.242;20.980;2023-05-01T09:17:48;100862.88;;;21.51;20.25
17607;BME280;69222;52.242;20.980;2023-05-01T09:20:17;100859.81;;;21.99;19.43
17607;BME280;69222;52.242;20.980;2023-05-01T09:22:46;100852.97;;;22.15;18.76
17607;BME280;69222;52.242;20.980;2023-05-01T09:25:14;100853.41;;;22.61;18.68
17607;BME280;69222;52.242;20.980;2023-05-01T09:27:43;100849.97;;;22.96;17.93
17607;BME280;69222;52.242;20.980;2023-05-01T09:30:29;100843.84;;;23.96;17.68
17607;BME280;69222;52.242;20.980;2023-05-01T09:33:06;100832.88;;;24.97;16.67
17607;BME280;69222;52.242;20.980;2023-05-01T09:35:53;100831.13;;;25.85;17.15
17607;BME280;69222;52.242;20.980;2023-05-01T09:38:22;100830.72;;;26.60;16.47
17607;BME280;69222;52.242;20.980;2023-05-01T09:40:52;100825.88;;;27.44;15.40
17607;BME280;69222;52.242;20.980;2023-05-01T09:43:26;100822.69;;;28.14;15.13
17607;BME280;69222;52.242;20.980;2023-05-01T09:46:03;100819.88;;;28.53;15.00
17607;BME280;69222;52.242;20.980;2023-05-01T09:48:32;100818.25;;;28.63;12.60
17607;BME280;69222;52.242;20.980;2023-05-01T09:51:18;100811.94;;;28.29;12.44
17607;BME280;69222;52.242;20.980;2023-05-01T09:53:47;100809.06;;;28.32;12.12
17607;BME280;69222;52.242;20.980;2023-05-01T09:56:15;100813.88;;;28.51;12.50
17607;BME280;69222;52.242;20.980;2023-05-01T09:58:44;100815.19;;;28.92;12.57
17607;BME280;69222;52.242;20.980;2023-05-01T10:01:13;100808.78;;;29.52;12.45
17607;BME280;69222;52.242;20.980;2023-05-01T10:03:42;100801.97;;;30.04;11.37
17607;BME280;69222;52.242;20.980;2023-05-01T10:06:11;100801.03;;;29.82;10.11
17607;BME280;69222;52.242;20.980;2023-05-01T10:08:47;100806.84;;;29.88;9.81
17607;BME280;69222;52.242;20.980;2023-05-01T10:11:15;100799.09;;;29.84;10.23
17607;BME280;69222;52.242;20.980;2023-05-01T10:13:43;100805.03;;;29.88;10.25
17607;BME280;69222;52.242;20.980;2023-05-01T10:16:28;100797.34;;;30.28;9.91
17607;BME280;69222;52.242;20.980;2023-05-01T10:18:58;100787.34;;;30.95;9.71
17607;BME280;69222;52.242;20.980;2023-05-01T10:21:30;100782.78;;;31.77;9.27
17607;BME280;69222;52.242;20.980;2023-05-01T10:23:59;100788.00;;;31.79;9.05
17607;BME280;69222;52.242;20.980;2023-05-01T10:26:28;100773.97;;;31.37;9.76
17607;BME280;69222;52.242;20.980;2023-05-01T10:28:56;100775.47;;;31.60;10.04
17607;BME280;69222;52.242;20.980;2023-05-01T10:31:28;100774.53;;;31.71;10.42
17607;BME280;69222;52.242;20.980;2023-05-01T10:33:59;100772.91;;;31.89;10.45
17607;BME280;69222;52.242;20.980;2023-05-01T10:36:31;100769.47;;;31.77;10.72
17607;BME280;69222;52.242;20.980;2023-05-01T10:39:00;100758.28;;;31.84;10.78
17607;BME280;69222;52.242;20.980;2023-05-01T10:42:00;100758.09;;;31.66;11.16
17607;BME280;69222;52.242;20.980;2023-05-01T10:44:29;100756.94;;;31.59;10.49
17607;BME280;69222;52.242;20.980;2023-05-01T10:46:59;100757.63;;;31.51;11.08
17607;BME280;69222;52.242;20.980;2023-05-01T10:52:30;100758.69;;;31.79;10.75
17607;BME280;69222;52.242;20.980;2023-05-01T10:55:31;100758.53;;;31.81;10.55
17607;BME280;69222;52.242;20.980;2023-05-01T10:57:59;100755.25;;;32.27;10.57
17607;BME280;69222;52.242;20.980;2023-05-01T11:00:27;100750.75;;;32.28;10.20
17607;BME280;69222;52.242;20.980;2023-05-01T11:06:14;100747.59;;;31.84;10.42
17607;BME280;69222;52.242;20.980;2023-05-01T11:08:43;100738.53;;;30.85;10.97
17607;BME280;69222;52.242;20.980;2023-05-01T11:11:48;100732.59;;;30.07;12.35
17607;BME280;69222;52.242;20.980;2023-05-01T11:14:16;100738.91;;;30.06;11.91
17607;BME280;69222;52.242;20.980;2023-05-01T11:16:45;100736.50;;;30.03;11.10
17607;BME280;69222;52.242;20.980;2023-05-01T11:22:17;100723.34;;;29.13;11.65
17607;BME280;69222;52.242;20.980;2023-05-01T11:24:45;100724.75;;;28.83;12.35
17607;BME280;69222;52.242;20.980;2023-05-01T11:27:14;100731.66;;;28.39;12.79
17607;BME280;69222;52.242;20.980;2023-05-01T11:29:44;100721.97;;;27.54;13.67
17607;BME280;69222;52.242;20.980;2023-05-01T11:32:24;100717.59;;;26.65;13.75
17607;BME280;69222;52.242;20.980;2023-05-01T11:34:53;100719.38;;;25.70;13.96
17607;BME280;69222;52.242;20.980;2023-05-01T11:37:39;100718.19;;;24.90;15.37
17607;BME280;69222;52.242;20.980;2023-05-01T11:40:18;100715.22;;;24.36;16.06
17607;BME280;69222;52.242;20.980;2023-05-01T11:42:49;100711.06;;;23.70;15.69
17607;BME280;69222;52.242;20.980;2023-05-01T11:45:18;100711.34;;;23.17;15.82
17607;BME280;69222;52.242;20.980;2023-05-01T11:47:46;100710.78;;;22.94;16.31
17607;BME280;69222;52.242;20.980;2023-05-01T11:50:14;100711.84;;;22.73;15.86
17607;BME280;69222;52.242;20.980;2023-05-01T11:52:49;100708.06;;;22.26;15.73
17607;BME280;69222;52.242;20.980;2023-05-01T11:55:19;100702.13;;;22.04;16.15
17607;BME280;69222;52.242;20.980;2023-05-01T11:57:49;100705.88;;;21.81;17.24
17607;BME280;69222;52.242;20.980;2023-05-01T12:00:26;100700.50;;;21.46;17.85
17607;BME280;69222;52.242;20.980;2023-05-01T12:02:55;100697.34;;;21.19;18.29
17607;BME280;69222;52.242;20.980;2023-05-01T12:05:24;100698.16;;;21.01;19.53
17607;BME280;69222;52.242;20.980;2023-05-01T12:08:08;100698.38;;;20.75;20.16
17607;BME280;69222;52.242;20.980;2023-05-01T12:10:38;100686.59;;;20.65;19.76
17607;BME280;69222;52.242;20.980;2023-05-01T12:13:07;100685.91;;;20.40;19.84
17607;BME280;69222;52.242;20.980;2023-05-01T12:15:37;100690.81;;;20.27;19.69
17607;BME280;69222;52.242;20.980;2023-05-01T12:18:06;100692.81;;;20.20;19.46
17607;BME280;69222;52.242;20.980;2023-05-01T12:20:36;100683.84;;;20.06;18.95
17607;BME280;69222;52.242;20.980;2023-05-01T12:23:06;100676.31;;;19.98;19.85
17607;BME280;69222;52.242;20.980;2023-05-01T12:25:37;100680.91;;;19.91;19.81
17607;BME280;69222;52.242;20.980;2023-05-01T12:28:12;100675.88;;;19.87;20.51
17607;BME280;69222;52.242;20.980;2023-05-01T12:30:41;100671.88;;;19.78;20.52
17607;BME280;69222;52.242;20.980;2023-05-01T12:33:14;100656.63;;;19.67;21.46
17607;BME280;69222;52.242;20.980;2023-05-01T12:35:44;100659.53;;;19.58;21.74
17607;BME280;69222;52.242;20.980;2023-05-01T12:38:14;100659.06;;;19.48;21.12
17607;BME280;69222;52.242;20.980;2023-05-01T12:40:50;100661.06;;;19.42;19.82
17607;BME280;69222;52.242;20.980;2023-05-01T12:43:20;100656.13;;;19.34;20.37
17607;BME280;69222;52.242;20.980;2023-05-01T12:45:51;100660.97;;;19.43;20.42
17607;BME280;69222;52.242;20.980;2023-05-01T12:48:20;100646.59;;;19.55;20.91
17607;BME280;69222;52.242;20.980;2023-05-01T12:50:48;100647.19;;;19.63;20.45
17607;BME280;69222;52.242;20.980;2023-05-01T12:53:23;100654.84;;;19.68;19.62
17607;BME280;69222;52.242;20.980;2023-05-01T12:55:53;100639.28;;;19.65;19.83
17607;BME280;69222;52.242;20.980;2023-05-01T12:58:22;100645.34;;;19.65;19.95
17607;BME280;69222;52.242;20.980;2023-05-01T13:00:51;100648.97;;;19.63;20.22
17607;BME280;69222;52.242;20.980;2023-05-01T13:03:22;100635.75;;;19.66;19.79
17607;BME280;69222;52.242;20.980;2023-05-01T13:05:52;100628.13;;;19.60;19.48
17607;BME280;69222;52.242;20.980;2023-05-01T13:08:27;100617.16;;;19.50;20.09
17607;BME280;69222;52.242;20.980;2023-05-01T13:10:56;100610.72;;;19.59;20.37